Flight Track Log - Related Links

Times and Time Zones

All times are in EDT time to prevent confusion due to time zone crossing. See the N789XJ flight status page for this flight to view local times or setup timezone preferences in your user account.

Time Position Orientation Groundspeed Altitude Reporting Facility
EDT Latitude Longitude Course Direction KTS MPH feet Rate Location/Type
Fri 08:22:21 AM 37.6500 -122.4167 38° Northeast 192 221 1,800  Level Northern Cal TRACON
Fri 08:23:21 AM 37.7000 -122.3667 38° Northeast 219 252 4,300 2,286 Climbing Northern Cal TRACON
Fri 08:24:06 AM 37.7331 -122.3672 359° North 214 246 5,800 2,300 Climbing Oakland Center
Fri 08:24:21 AM 37.7500 -122.3833 323° Northwest 229 264 6,600 2,720 Climbing Northern Cal TRACON
Fri 08:25:21 AM 37.8167 -122.3667 11° North 255 293 9,200 2,400 Climbing Northern Cal TRACON
Fri 08:26:06 AM 37.8506 -122.3200 47° Northeast 254 292 10,800 1,981 Climbing Oakland Center
Fri 08:27:07 AM 37.9044 -122.2489 46° Northeast 277 319 12,700 1,785 Climbing Oakland Center
Fri 08:28:07 AM 37.9672 -122.1686 45° Northeast 318 366 14,400 1,700 Climbing Oakland Center
Fri 08:29:07 AM 38.0358 -122.0803 45° Northeast 351 404 16,100 1,650 Climbing Oakland Center
Fri 08:30:07 AM 38.1056 -121.9847 47° Northeast 369 425 17,700 1,650 Climbing Oakland Center
Fri 08:31:07 AM 38.1564 -121.8617 62° Northeast 393 452 19,400 1,700 Climbing Oakland Center
Fri 08:32:07 AM 38.1922 -121.7297 71° East 396 456 21,100 1,700 Climbing Oakland Center
Fri 08:33:07 AM 38.2300 -121.5950 70° East 404 465 22,800 1,736 Climbing Oakland Center
Fri 08:34:08 AM 38.2742 -121.4386 70° East 412 474 24,600 1,587 Climbing Oakland Center
Fri 08:35:08 AM 38.3128 -121.2983 71° East 423 487 26,000 1,450 Climbing Oakland Center
Fri 08:36:08 AM 38.3525 -121.1544 71° East 435 501 27,500 1,450 Climbing Oakland Center
Fri 08:37:08 AM 38.3933 -121.0064 71° East 449 517 28,900 1,400 Climbing Oakland Center
Fri 08:38:08 AM 38.4350 -120.8544 71° East 457 526 30,300 1,500 Climbing Oakland Center
Fri 08:39:08 AM 38.4767 -120.6989 71° East 465 535 31,900 1,537 Climbing Oakland Center
Fri 08:40:09 AM 38.5197 -120.5417 71° East 472 543 33,400 1,289 Climbing Oakland Center
Fri 08:41:09 AM 38.5633 -120.3806 71° East 480 552 34,500 1,050 Climbing Oakland Center
Fri 08:42:09 AM 38.6072 -120.2133 71° East 495 570 35,500 1,000 Climbing Oakland Center
Fri 08:43:09 AM 38.6542 -120.0417 71° East 508 585 36,500 1,000 Climbing Oakland Center
Fri 08:44:09 AM 38.6997 -119.8681 71° East 515 593 37,500 992 Climbing Oakland Center
Fri 08:45:10 AM 38.7442 -119.6933 72° East 522 601 38,500 942 Climbing Oakland Center
Fri 08:46:10 AM 38.7886 -119.5194 72° East 517 595 39,400 950 Climbing Oakland Center
Fri 08:47:10 AM 38.8333 -119.3458 72° East 515 593 40,400 950 Climbing Oakland Center
Fri 08:48:10 AM 38.8778 -119.1742 72° East 510 587 41,300 800 Climbing Oakland Center
Fri 08:49:10 AM 38.9197 -119.0064 72° East 499 574 42,000 694 Climbing Oakland Center
Fri 08:50:11 AM 38.9633 -118.8364 72° East 505 581 42,700 595 Climbing Oakland Center
Fri 08:51:11 AM 39.0056 -118.6692 72° East 497 572 43,200 500 Climbing Oakland Center
Fri 08:52:11 AM 39.0464 -118.5033 72° East 494 568 43,700 500 Climbing Oakland Center
Fri 08:53:11 AM 39.0872 -118.3386 72° East 491 565 44,200 500 Climbing Oakland Center
Fri 08:54:11 AM 39.1275 -118.1764 72° East 482 555 44,700 397 Climbing Oakland Center
Fri 08:55:12 AM 39.1664 -118.0156 73° East 475 547 45,000 149 Climbing Oakland Center
Fri 08:56:12 AM 39.2064 -117.8536 72° East 477 549 45,000  Level Oakland Center
Fri 08:57:12 AM 39.2456 -117.6906 73° East 478 550 45,000  Level Oakland Center
Fri 08:58:12 AM 39.2847 -117.5253 73° East 482 555 45,000  Level Oakland Center
Fri 08:59:13 AM 39.3294 -117.3378 73° East 483 556 45,000  Level Oakland Center
Fri 08:59:55 AM 39.3531 -117.2294 74° East 483 556 45,000  Level Salt Lake Center
Fri 09:00:56 AM 39.3967 -117.0428 73° East 485 558 45,000  Level Salt Lake Center
Fri 09:01:57 AM 39.4339 -116.8828 73° East 487 560 45,000  Level Salt Lake Center
Fri 09:02:57 AM 39.4708 -116.7239 73° East 484 557 45,000  Level Salt Lake Center
Fri 09:03:58 AM 39.5133 -116.5367 74° East 487 560 45,000  Level Salt Lake Center
Fri 09:04:59 AM 39.5492 -116.3775 74° East 484 557 45,000  Level Salt Lake Center
Fri 09:06:00 AM 39.5850 -116.2172 74° East 485 558 45,000  Level Salt Lake Center
Fri 09:07:00 AM 39.6278 -116.0308 73° East 485 558 45,000  Level Salt Lake Center
Fri 09:08:01 AM 39.6633 -115.8694 74° East 487 560 45,000  Level Salt Lake Center
Fri 09:09:02 AM 39.6981 -115.7081 74° East 487 560 45,000  Level Salt Lake Center
Fri 09:10:03 AM 39.7397 -115.5194 74° East 488 562 45,000  Level Salt Lake Center
Fri 09:11:04 AM 39.7767 -115.3553 74° East 494 568 45,000  Level Salt Lake Center
Fri 09:12:05 AM 39.8122 -115.1925 74° East 492 566 45,000  Level Salt Lake Center
Fri 09:13:06 AM 39.8531 -115.0028 74° East 489 563 45,000  Level Salt Lake Center
Fri 09:14:06 AM 39.8872 -114.8389 75° East 490 564 45,000  Level Salt Lake Center
Fri 09:15:07 AM 39.9258 -114.6497 75° East 492 566 45,000  Level Salt Lake Center
Fri 09:16:08 AM 39.9625 -114.4803 74° East 489 563 45,000  Level Salt Lake Center
Fri 09:17:09 AM 39.9978 -114.3075 75° East 492 566 45,000  Level Salt Lake Center
Fri 09:18:10 AM 40.0331 -114.1361 75° East 492 566 45,000  Level Salt Lake Center
Fri 09:19:11 AM 40.0678 -113.9636 75° East 493 567 45,000  Level Salt Lake Center
Fri 09:20:12 AM 40.1028 -113.7914 75° East 492 566 45,000  Level Salt Lake Center
Fri 09:21:13 AM 40.1375 -113.6183 75° East 494 568 45,000  Level Salt Lake Center
Fri 09:22:14 AM 40.1717 -113.4442 76° East 495 570 45,000  Level Salt Lake Center
Fri 09:23:15 AM 40.2056 -113.2697 76° East 497 572 45,000  Level Salt Lake Center
Fri 09:24:16 AM 40.2397 -113.0958 76° East 496 571 45,000  Level Salt Lake Center
Fri 09:25:16 AM 40.2747 -112.9214 75° East 497 572 45,000  Level Salt Lake Center
Fri 09:26:17 AM 40.3075 -112.7450 76° East 501 577 45,000  Level Salt Lake Center
Fri 09:27:18 AM 40.3475 -112.5336 76° East 500 575 45,000  Level Salt Lake Center
Fri 09:28:19 AM 40.3806 -112.3569 76° East 501 577 45,000  Level Salt Lake Center
Fri 09:29:20 AM 40.4136 -112.1794 76° East 504 580 45,000  Level Salt Lake Center
Fri 09:30:21 AM 40.4461 -112.0031 76° East 502 578 45,000  Level Salt Lake Center
Fri 09:31:22 AM 40.4778 -111.8269 77° East 502 578 45,000  Level Salt Lake Center
Fri 09:32:23 AM 40.5103 -111.6508 76° East 502 578 45,000  Level Salt Lake Center
Fri 09:33:24 AM 40.5422 -111.4744 77° East 502 578 45,000  Level Salt Lake Center
Fri 09:34:25 AM 40.5742 -111.2967 77° East 504 580 45,000  Level Salt Lake Center
Fri 09:35:26 AM 40.6050 -111.1214 77° East 499 574 45,000  Level Salt Lake Center
Fri 09:36:28 AM 40.6417 -110.9064 77° East 504 580 45,000  Level Salt Lake Center
Fri 09:37:29 AM 40.6725 -110.7272 77° East 504 580 45,000  Level Salt Lake Center
Fri 09:38:30 AM 40.7019 -110.5497 78° East 503 579 45,000  Level Salt Lake Center
Fri 09:39:31 AM 40.7311 -110.3778 77° East 504 580 45,000  Level Salt Lake Center
Fri 09:40:32 AM 40.7625 -110.1944 77° East 504 580 45,000  Level Salt Lake Center
Fri 09:41:33 AM 40.7942 -109.9942 78° East 501 577 45,000  Level Salt Lake Center
Fri 09:42:34 AM 40.8233 -109.8211 77° East 504 580 45,000  Level Salt Lake Center
Fri 09:43:35 AM 40.8539 -109.6333 78° East 502 578 45,000  Level Salt Lake Center
Fri 09:44:37 AM 40.8808 -109.4617 78° East 502 578 45,000  Level Salt Lake Center
Fri 09:45:38 AM 40.9119 -109.2600 78° East 504 580 45,000  Level Salt Lake Center
Fri 09:46:39 AM 40.9394 -109.0883 78° East 503 579 45,000  Level Salt Lake Center
Fri 09:47:40 AM 40.9706 -108.8878 78° East 502 578 45,000  Level Salt Lake Center
Fri 09:48:41 AM 40.9975 -108.7169 78° East 499 574 45,000  Level Salt Lake Center
Fri 09:49:42 AM 41.0231 -108.5461 79° East 500 575 45,000  Level Salt Lake Center
Fri 09:50:44 AM 41.0528 -108.3467 79° East 498 573 45,000  Level Salt Lake Center
Fri 09:51:03 AM 41.0617 -108.2867 79° East 499 574 45,000  Level Denver Center
Fri 09:52:04 AM 41.0861 -108.1139 79° East 501 577 45,000  Level Denver Center
Fri 09:53:06 AM 41.1153 -107.9131 79° East 499 574 45,000  Level Denver Center
Fri 09:54:07 AM 41.1411 -107.7392 79° East 502 578 45,000  Level Denver Center
Fri 09:55:08 AM 41.1656 -107.5656 79° East 502 578 45,000  Level Denver Center
Fri 09:56:09 AM 41.1936 -107.3642 79° East 500 575 45,000  Level Denver Center
Fri 09:57:11 AM 41.2178 -107.1906 79° East 500 575 45,000  Level Denver Center
Fri 09:58:12 AM 41.2461 -106.9894 79° East 497 572 45,000  Level Denver Center
Fri 09:59:13 AM 41.2672 -106.8164 81° East 497 572 45,000  Level Denver Center
Fri 10:00:15 AM 41.2897 -106.6444 80° East 495 570 45,000  Level Denver Center
Fri 10:01:16 AM 41.3169 -106.4522 79° East 497 572 45,000  Level Denver Center
Fri 10:02:17 AM 41.3433 -106.2511 80° East 495 570 45,000  Level Denver Center
Fri 10:03:19 AM 41.3653 -106.0783 80° East 497 572 45,000  Level Denver Center
Fri 10:04:20 AM 41.3878 -105.9069 80° East 494 568 45,000  Level Denver Center
Fri 10:05:21 AM 41.4128 -105.7028 81° East 499 574 45,000  Level Denver Center
Fri 10:06:23 AM 41.4333 -105.5294 81° East 497 572 45,000  Level Denver Center
Fri 10:07:24 AM 41.4589 -105.3264 80° East 499 574 45,000  Level Denver Center
Fri 10:08:38 AM 41.4828 -105.1231 81° East 497 572 45,000  Level Denver Center
Fri 10:09:39 AM 41.5075 -104.9189 81° East 501 577 45,000  Level Denver Center
Fri 10:10:41 AM 41.5272 -104.7464 81° East 495 570 45,000  Level Denver Center
Fri 10:11:42 AM 41.5500 -104.5428 81° East 499 574 45,000  Level Denver Center
Fri 10:12:44 AM 41.5703 -104.3689 81° East 498 573 45,000  Level Denver Center
Fri 10:13:45 AM 41.5925 -104.1664 82° East 498 573 45,000  Level Denver Center
Fri 10:14:47 AM 41.6122 -103.9911 81° East 498 573 45,000  Level Denver Center
Fri 10:15:49 AM 41.6300 -103.8167 82° East 498 573 45,000  Level Denver Center
Fri 10:16:50 AM 41.6528 -103.6119 81° East 499 574 45,000  Level Denver Center
Fri 10:17:52 AM 41.6708 -103.4361 82° East 500 575 45,000  Level Denver Center
Fri 10:18:53 AM 41.6919 -103.2308 82° East 501 577 45,000  Level Denver Center
Fri 10:19:55 AM 41.7092 -103.0572 82° East 496 571 45,000  Level Denver Center
Fri 10:20:57 AM 41.7297 -102.8517 82° East 499 574 45,000  Level Denver Center
Fri 10:21:59 AM 41.7458 -102.6783 83° East 495 570 45,000  Level Denver Center
Fri 10:23:00 AM 41.7639 -102.5028 82° East 498 573 45,000  Level Denver Center
Fri 10:24:02 AM 41.7833 -102.2972 83° East 499 574 45,000  Level Denver Center
Fri 10:25:04 AM 41.8000 -102.1181 83° East 497 572 45,000  Level Denver Center
Fri 10:26:06 AM 41.8183 -101.9100 83° East 501 577 45,000  Level Denver Center
Fri 10:27:08 AM 41.8342 -101.7325 83° East 500 575 45,000  Level Denver Center
Fri 10:28:10 AM 41.8539 -101.5239 83° East 504 580 45,000  Level Denver Center
Fri 10:29:12 AM 41.8689 -101.3475 83° East 497 572 45,000  Level Denver Center
Fri 10:30:26 AM 41.8831 -101.1711 84° East 496 571 45,000  Level Denver Center
Fri 10:31:28 AM 41.9022 -100.9361 84° East 496 571 45,000  Level Denver Center
Fri 10:32:30 AM 41.9192 -100.7311 84° East 494 568 45,000  Level Denver Center
Fri 10:33:32 AM 41.9325 -100.5558 84° East 494 568 45,000  Level Denver Center
Fri 10:34:34 AM 41.9489 -100.3508 84° East 494 568 45,000  Level Denver Center
Fri 10:35:36 AM 41.9617 -100.1753 84° East 493 567 45,000  Level Denver Center
Fri 10:36:20 AM 41.9725 -100.0442 84° East 494 568 45,000  Level Minneapolis Center
Fri 10:36:38 AM 41.9747 -100.0003 86° East 492 566 45,000  Level Denver Center
Fri 10:37:40 AM 41.9889 -99.7939 85° East 496 571 45,000  Level Denver Center
Fri 10:38:42 AM 42.0031 -99.6042 84° East 491 565 45,000  Level Denver Center
Fri 10:39:44 AM 42.0156 -99.4186 85° East 492 566 45,000  Level Denver Center
Fri 10:40:46 AM 42.0286 -99.2350 84° East 493 567 45,000  Level Denver Center
Fri 10:41:29 AM 42.0358 -99.1233 85° East 494 568 45,000  Level Minneapolis Center
Fri 10:42:30 AM 42.0508 -98.9006 85° East 495 570 45,000  Level Minneapolis Center
Fri 10:43:32 AM 42.0622 -98.7156 85° East 495 570 45,000  Level Minneapolis Center
Fri 10:44:34 AM 42.0733 -98.5317 85° East 492 566 45,000  Level Minneapolis Center
Fri 10:45:47 AM 42.0836 -98.3469 86° East 492 566 45,000  Level Minneapolis Center
Fri 10:46:49 AM 42.0964 -98.1308 85° East 492 566 45,000  Level Minneapolis Center
Fri 10:47:51 AM 42.1078 -97.9458 85° East 494 568 45,000  Level Minneapolis Center
Fri 10:48:52 AM 42.1144 -97.7992 86° East 491 565 45,000  Level Minneapolis Center
Fri 10:49:54 AM 42.1267 -97.5797 86° East 490 564 45,000  Level Minneapolis Center
Fri 10:50:56 AM 42.1378 -97.3600 86° East 491 565 45,000  Level Minneapolis Center
Fri 10:51:58 AM 42.1464 -97.1778 86° East 488 562 45,000  Level Minneapolis Center
Fri 10:53:11 AM 42.1553 -96.9944 86° East 489 563 45,000  Level Minneapolis Center
Fri 10:54:13 AM 42.1661 -96.7725 86° East 493 567 45,000  Level Minneapolis Center
Fri 10:55:15 AM 42.1733 -96.5875 87° East 493 567 45,000  Level Minneapolis Center
Fri 10:56:17 AM 42.1814 -96.4022 87° East 493 567 45,000  Level Minneapolis Center
Fri 10:57:18 AM 42.1886 -96.2158 87° East 495 570 45,000  Level Minneapolis Center
Fri 10:58:20 AM 42.1961 -96.0306 87° East 494 568 45,000  Level Minneapolis Center
Fri 10:59:22 AM 42.2033 -95.8444 87° East 493 567 45,000  Level Minneapolis Center
Fri 11:00:23 AM 42.2117 -95.6197 87° East 499 574 45,000  Level Minneapolis Center
Fri 11:01:25 AM 42.2172 -95.4342 88° East 495 570 45,000  Level Minneapolis Center
Fri 11:02:26 AM 42.2236 -95.2492 87° East 493 567 45,000  Level Minneapolis Center
Fri 11:03:28 AM 42.2289 -95.0622 88° East 496 571 45,000  Level Minneapolis Center
Fri 11:04:30 AM 42.2347 -94.8764 88° East 495 570 45,000  Level Minneapolis Center
Fri 11:05:31 AM 42.2397 -94.6906 88° East 495 570 45,000  Level Minneapolis Center
Fri 11:06:33 AM 42.2431 -94.5397 88° East 499 574 45,000  Level Minneapolis Center
Fri 11:07:35 AM 42.2483 -94.3175 88° East 495 570 45,000  Level Minneapolis Center
Fri 11:08:36 AM 42.2528 -94.1289 88° East 504 580 45,000  Level Minneapolis Center
Fri 11:09:38 AM 42.2578 -93.9042 88° East 504 580 45,000  Level Minneapolis Center
Fri 11:10:40 AM 42.2600 -93.7197 89° East 499 574 45,000  Level Minneapolis Center
Fri 11:11:41 AM 42.2642 -93.5319 88° East 503 579 45,000  Level Minneapolis Center
Fri 11:12:43 AM 42.2667 -93.3450 89° East 504 580 45,000  Level Minneapolis Center
Fri 11:13:57 AM 42.2700 -93.1203 89° East 503 579 45,000  Level Minneapolis Center
Fri 11:14:58 AM 42.2722 -92.9314 89° East 507 583 45,000  Level Minneapolis Center
Fri 11:16:00 AM 42.2750 -92.7061 89° East 506 582 45,000  Level Minneapolis Center
Fri 11:17:02 AM 42.2772 -92.5189 89° East 507 583 45,000  Level Minneapolis Center
Fri 11:18:03 AM 42.2781 -92.3314 90° East 505 581 45,000  Level Minneapolis Center
Fri 11:19:05 AM 42.2792 -92.1439 89° East 506 582 45,000  Level Minneapolis Center
Fri 11:19:30 AM 42.2794 -92.0672 90° East 504 580 45,000  Level Chicago Center
Fri 11:20:32 AM 42.2800 -91.8806 90° East 504 580 45,000  Level Chicago Center
Fri 11:21:34 AM 42.2803 -91.6586 90° East 502 578 45,000  Level Chicago Center
Fri 11:22:35 AM 42.2806 -91.4711 90° East 507 583 45,000  Level Chicago Center
Fri 11:23:37 AM 42.2800 -91.2856 90° East 504 580 45,000  Level Chicago Center
Fri 11:24:39 AM 42.2783 -91.0989 91° East 503 579 45,000  Level Chicago Center
Fri 11:25:40 AM 42.2775 -90.9136 90° East 502 578 45,000  Level Chicago Center
Fri 11:26:42 AM 42.2756 -90.6881 91° East 505 581 45,000  Level Chicago Center
Fri 11:27:44 AM 42.2733 -90.4992 91° East 509 586 45,000  Level Chicago Center
Fri 11:28:45 AM 42.2717 -90.3097 91° East 509 586 45,000  Level Chicago Center
Fri 11:29:47 AM 42.2697 -90.1225 91° East 505 581 45,000  Level Chicago Center
Fri 11:30:49 AM 42.2667 -89.9333 91° East 507 583 45,000  Level Chicago Center
Fri 11:31:50 AM 42.2636 -89.7292 91° East 508 585 45,000  Level Chicago Center
Fri 11:32:52 AM 42.2594 -89.5081 91° East 508 585 45,000  Level Chicago Center
Fri 11:33:54 AM 42.2564 -89.3156 91° East 514 592 45,000  Level Chicago Center
Fri 11:34:56 AM 42.2525 -89.1247 92° East 510 587 45,000  Level Chicago Center
Fri 11:35:57 AM 42.2475 -88.9317 92° East 514 592 45,000  Level Chicago Center
Fri 11:36:59 AM 42.2433 -88.7419 92° East 517 595 45,000  Level Chicago Center
Fri 11:38:01 AM 42.2386 -88.5494 92° East 515 593 45,000  Level Chicago Center
Fri 11:39:03 AM 42.2322 -88.3172 92° East 515 593 45,000  Level Chicago Center
Fri 11:40:05 AM 42.2264 -88.1236 92° East 514 592 45,000  Level Chicago Center
Fri 11:41:06 AM 42.2194 -87.9319 93° East 513 590 45,000  Level Chicago Center
Fri 11:42:08 AM 42.2094 -87.7397 94° East 511 588 45,000  Level Chicago Center
Fri 11:43:10 AM 42.1997 -87.5475 94° East 512 589 45,000  Level Chicago Center
Fri 11:44:12 AM 42.1883 -87.3547 94° East 514 592 45,000  Level Chicago Center
Fri 11:45:14 AM 42.1769 -87.1622 95° East 515 593 45,000  Level Chicago Center
Fri 11:46:15 AM 42.1650 -86.9700 95° East 517 595 45,000  Level Chicago Center
Fri 11:47:17 AM 42.1511 -86.7425 95° East 511 588 45,000  Level Chicago Center
Fri 11:48:19 AM 42.1425 -86.5781 94° East 515 593 45,000  Level Chicago Center
Fri 11:49:20 AM 42.1281 -86.3475 95° East 515 593 45,000  Level Chicago Center
Fri 11:50:22 AM 42.1142 -86.1553 95° East 515 593 45,000  Level Chicago Center
Fri 11:51:24 AM 42.1017 -85.9614 95° East 518 596 45,000  Level Chicago Center
Fri 11:52:25 AM 42.0892 -85.7842 95° East 520 598 45,000  Level Chicago Center
Fri 11:53:27 AM 42.0756 -85.5903 95° East 523 602 45,000  Level Chicago Center
Fri 11:54:29 AM 42.0583 -85.3569 96° East 520 598 45,000  Level Chicago Center
Fri 11:55:30 AM 42.0444 -85.1647 95° East 527 606 45,000  Level Chicago Center
Fri 11:56:32 AM 42.0378 -84.9689 93° East 528 608 45,000  Level Chicago Center
Fri 11:57:36 AM 42.0428 -84.7469 88° East 522 601 45,000  Level Cleveland Center
Fri 11:58:36 AM 42.0436 -84.5511 90° East 522 601 45,000  Level Cleveland Center
Fri 11:59:36 AM 42.0439 -84.3553 90° East 517 595 45,000  Level Cleveland Center
Fri 12:00:36 PM 42.0392 -84.1789 92° East 517 595 45,000  Level Cleveland Center
Fri 12:01:36 PM 42.0389 -83.9831 90° East 517 595 45,000  Level Cleveland Center
Fri 12:02:36 PM 42.0361 -83.7872 91° East 517 595 45,000  Level Cleveland Center
Fri 12:03:36 PM 42.0353 -83.5886 90° East 517 595 45,000  Level Cleveland Center
Fri 12:04:36 PM 42.0364 -83.3733 90° East 524 603 45,000  Level Cleveland Center
Fri 12:05:36 PM 42.0325 -83.1942 92° East 524 603 45,000  Level Cleveland Center
Fri 12:06:36 PM 42.0325 -82.9958 90° East 524 603 45,000  Level Cleveland Center
Fri 12:07:36 PM 42.0303 -82.8000 91° East 524 603 45,000  Level Cleveland Center
Fri 12:08:36 PM 42.0275 -82.6042 91° East 524 603 45,000  Level Cleveland Center
Fri 12:09:36 PM 42.0183 -82.4111 94° East 519 597 45,000  Level Cleveland Center
Fri 12:10:36 PM 42.0233 -82.2128 88° East 519 597 45,000  Level Cleveland Center
Fri 12:11:36 PM 42.0197 -82.0197 91° East 519 597 45,000  Level Cleveland Center
Fri 12:12:36 PM 42.0178 -81.8211 91° East 519 597 45,000  Level Cleveland Center
Fri 12:13:36 PM 42.0117 -81.6086 92° East 519 597 45,000  Level Cleveland Center
Fri 12:14:36 PM 42.0050 -81.4158 93° East 519 597 45,000  Level Cleveland Center
Fri 12:15:36 PM 42.0019 -81.2258 91° East 519 597 45,000  Level Cleveland Center
Fri 12:16:36 PM 41.9967 -81.0331 92° East 513 590 45,000  Level Cleveland Center
Fri 12:17:36 PM 41.9889 -80.8375 93° East 518 596 45,000  Level Cleveland Center
Fri 12:18:36 PM 41.9850 -80.6419 91° East 518 596 45,000  Level Cleveland Center
Fri 12:19:36 PM 41.9808 -80.4492 92° East 518 596 45,000  Level Cleveland Center
Fri 12:20:36 PM 41.9722 -80.2789 94° East 513 590 45,000  Level Cleveland Center
Fri 12:21:36 PM 41.9653 -80.0833 93° East 521 600 45,000  Level Cleveland Center
Fri 12:22:36 PM 41.9600 -79.8936 92° East 511 588 45,000  Level Cleveland Center
Fri 12:24:36 PM 41.9444 -79.5111 93° East 511 588 45,000  Level Cleveland Center
Fri 12:25:36 PM 41.9364 -79.3186 93° East 511 588 45,000  Level Cleveland Center
Fri 12:26:36 PM 41.9300 -79.1319 93° East 511 588 45,000  Level Cleveland Center
Fri 12:27:36 PM 41.9211 -78.9394 93° East 511 588 45,000 -400 Level Cleveland Center
Fri 12:28:36 PM 41.9119 -78.7500 94° East 516 594 44,200 -900 Descending Cleveland Center
Fri 12:29:36 PM 41.9028 -78.5661 94° East 516 594 43,200 -1,250 Descending Cleveland Center
Fri 12:30:36 PM 41.8931 -78.3794 94° East 507 583 41,700 -2,508 Descending Cleveland Center
Fri 12:32:45 PM 41.8706 -77.9908 94° East 484 557 35,300 -2,105 Descending New York Center
Fri 12:33:47 PM 41.8494 -77.8242 100° East 462 532 35,000 -150 Descending New York Center
Fri 12:34:45 PM 41.8133 -77.6589 106° East 457 526 35,000  Level New York Center
Fri 12:35:46 PM 41.7706 -77.4958 109° East 457 526 35,000 -446 Level New York Center
Fri 12:36:46 PM 41.7292 -77.3389 109° East 457 526 34,100 -1,289 Descending New York Center
Fri 12:37:47 PM 41.6858 -77.1789 110° East 457 526 32,400 -1,884 Descending New York Center
Fri 12:38:47 PM 41.6458 -77.0308 110° East 465 535 30,300 -1,729 Descending New York Center
Fri 12:39:45 PM 41.6022 -76.8686 110° East 465 535 29,000 -763 Descending New York Center
Fri 12:40:45 PM 41.5531 -76.6894 110° East 465 535 28,800 -1,140 Descending New York Center
Fri 12:41:46 PM 41.5106 -76.5386 111° Southeast 460 529 26,700 -2,281 Descending New York Center
Fri 12:42:46 PM 41.4700 -76.3858 109° East 448 516 24,200 -1,983 Descending New York Center
Fri 12:43:47 PM 41.4364 -76.2528 109° East 433 498 22,700 -1,537 Descending New York Center
Fri 12:44:47 PM 41.3964 -76.1278 113° Southeast 403 464 21,100 -1,576 Descending New York Center
Fri 12:45:45 PM 41.3639 -76.0147 111° Southeast 359 413 19,600 -1,160 Descending New York Center
Fri 12:46:46 PM 41.3336 -75.9019 110° East 330 380 18,800 -1,100 Descending New York Center
Fri 12:47:45 PM 41.3008 -75.7889 111° Southeast 330 380 17,400 -1,815 Descending New York Center
Fri 12:48:45 PM 41.2661 -75.6703 111° Southeast 312 359 15,200 -2,033 Descending New York Center
Fri 12:49:46 PM 41.2328 -75.5686 114° Southeast 306 352 13,300 -1,388 Descending New York Center
Fri 12:50:46 PM 41.2014 -75.4725 113° Southeast 293 337 12,400 -1,041 Descending New York Center
Fri 12:51:47 PM 41.1714 -75.3878 115° Southeast 288 331 11,200 -1,190 Descending New York Center
Fri 12:52:47 PM 41.1394 -75.2947 114° Southeast 288 331 10,000 -1,220 Descending New York Center
Fri 12:53:45 PM 41.1058 -75.1933 114° Southeast 282 325 8,800 -1,169 Descending New York Center
Fri 12:54:45 PM 41.0758 -75.1033 114° Southeast 277 319 7,700 -1,200 Descending New York Center
Fri 12:55:45 PM 41.0475 -75.0272 116° Southeast 262 302 6,400 -793 Descending New York Center
Fri 12:56:46 PM 41.0069 -74.9367 121° Southeast 262 302 6,100 -793 Descending New York Center
Fri 12:57:46 PM 40.9722 -74.8550 119° Southeast 257 296 4,800 -1,008 Descending New York Center
Fri 12:58:45 PM 40.9394 -74.7789 120° Southeast 257 296 4,100 -353 Descending New York Center
Fri 12:59:45 PM 40.9008 -74.6886 119° Southeast 257 296 4,100 -480 Level New York Center
Fri 01:00:50 PM 40.8667 -74.6000 117° Southeast 246 283 3,100 -480 Descending New York TRACON
Fri 01:01:50 PM 40.8333 -74.5333 123° Southeast 238 274 3,100  Level New York TRACON
Fri 01:02:50 PM 40.8000 -74.4500 118° Southeast 235 270 3,100 -50 Level New York TRACON
Fri 01:03:50 PM 40.7667 -74.3667 118° Southeast 248 285 3,000 -550 Descending New York TRACON
Fri 01:04:50 PM 40.7333 -74.3000 123° Southeast 208 239 2,000 -500 Descending New York TRACON
Fri 01:05:50 PM 40.7500 -74.2333 72° East 183 211 2,000 -200 Level New York TRACON
Fri 01:06:50 PM 40.7667 -74.1833 66° East 174 200 1,600 -250 Descending New York TRACON
Fri 01:07:50 PM 40.8000 -74.1333 49° Northeast 155 178 1,500 -400 Descending New York TRACON
Fri 01:08:50 PM 40.8333 -74.1000 37° Northeast 118 136 800 -700 Descending New York TRACON
Fri 01:10:00 PM 40.8501 -74.0608 58° Northeast  Level Estimated
Fri 01:17:00 PM 40.8501 -74.0608 58° Northeast  Level Estimated
Fri 01:18:00 PM 40.8501 -74.0608 58° Northeast  Level Estimated

Login

Don't have an account? Register now (free) for customized features, flight alerts, and more!